Time;durP1;ratioP1;P1;durP2;ratioP2;P2;SDS_P1;SDS_P2;PMS_P1;PMS_P2;Temp;Humidity;BMP_temperature;BMP_pressure;BME280_temperature;BME280_humidity;BME280_pressure;Samples;Min_cycle;Max_cycle;Signal;HPM_P1;HPM_P2
2022/05/06 00:04:38;;;;;;;8.30;5.30;;;16.60;62.10;;;;;;10457593;28;20064;-48
2022/05/06 00:09:39;;;;;;;6.55;5.30;;;16.60;62.10;;;;;;10457463;28;20415;-50
2022/05/06 00:14:40;;;;;;;6.93;5.32;;;16.50;62.00;;;;;;10456299;28;20111;-50
2022/05/06 00:19:45;;;;;;;6.90;5.50;;;16.60;62.00;;;;;;10456945;28;20486;-48
2022/05/06 00:24:46;;;;;;;6.93;5.60;;;16.50;61.90;;;;;;10456706;28;20029;-48
2022/05/06 00:29:47;;;;;;;8.02;4.95;;;16.50;61.90;;;;;;10456689;28;20051;-49
2022/05/06 00:34:47;;;;;;;8.43;6.07;;;16.50;62.60;;;;;;10456158;28;20080;-48
2022/05/06 00:39:48;;;;;;;6.22;4.53;;;16.50;61.90;;;;;;10456117;28;20052;-48
2022/05/06 00:44:49;;;;;;;6.78;5.18;;;16.50;61.90;;;;;;10456164;28;20060;-47
2022/05/06 00:49:50;;;;;;;8.80;6.13;;;16.50;61.80;;;;;;10455833;28;20485;-50
2022/05/06 00:54:52;;;;;;;7.18;5.55;;;16.50;61.70;;;;;;10455997;28;20044;-48
2022/05/06 01:05:13;;;;;;;6.32;4.53;;;16.50;61.70;;;;;;10468863;28;20041;-48
2022/05/06 01:10:14;;;;;;;6.32;4.82;;;16.50;61.70;;;;;;10455190;28;20098;-48
2022/05/06 01:15:25;;;;;;;6.25;5.20;;;16.50;61.70;;;;;;10454038;28;20037;-48
2022/05/06 01:20:26;;;;;;;6.35;5.45;;;16.50;61.70;;;;;;10454930;28;20504;-47
2022/05/06 01:25:27;;;;;;;6.45;4.85;;;16.50;61.80;;;;;;10454480;28;20041;-50
2022/05/06 01:30:31;;;;;;;6.72;5.35;;;16.50;61.70;;;;;;10454416;28;20029;-49
2022/05/06 01:35:43;;;;;;;7.45;5.90;;;16.50;61.70;;;;;;10454498;28;20052;-49
2022/05/06 01:41:01;;;;;;;6.65;5.10;;;16.50;61.70;;;;;;10468058;28;20025;-48
2022/05/06 01:46:04;;;;;;;6.85;5.43;;;16.50;61.70;;;;;;10454053;28;20024;-49
2022/05/06 01:51:14;;;;;;;8.18;6.07;;;16.40;61.60;;;;;;10453680;28;20130;-48
2022/05/06 01:56:21;;;;;;;5.18;4.53;;;16.40;61.60;;;;;;10468453;28;20112;-48
2022/05/06 02:01:22;;;;;;;7.00;5.68;;;16.40;61.60;;;;;;10468741;28;20392;-48
2022/05/06 02:06:22;;;;;;;7.00;4.55;;;16.40;61.50;;;;;;10453065;28;20033;-50
2022/05/06 02:11:23;;;;;;;6.53;5.03;;;16.40;61.60;;;;;;10453111;28;20028;-49
2022/05/06 02:16:24;;;;;;;7.57;5.78;;;16.40;61.60;;;;;;10452834;28;20454;-51
2022/05/06 02:21:24;;;;;;;6.38;5.20;;;16.40;61.60;;;;;;10452812;28;20565;-47
2022/05/06 02:26:25;;;;;;;7.72;5.10;;;16.40;61.70;;;;;;10452781;28;20071;-50
2022/05/06 02:36:46;;;;;;;6.80;5.28;;;16.40;61.90;;;;;;10452519;28;20041;-48
2022/05/06 02:41:47;;;;;;;7.70;5.03;;;16.40;61.90;;;;;;10467777;28;20025;-48
2022/05/06 02:46:47;;;;;;;6.22;5.13;;;16.40;61.90;;;;;;10452339;28;20100;-49
2022/05/06 02:51:49;;;;;;;7.80;5.68;;;16.40;61.90;;;;;;10457888;28;20064;-49
2022/05/06 02:56:49;;;;;;;7.28;5.85;;;16.40;62.00;;;;;;10460701;28;20029;-49
2022/05/06 03:01:50;;;;;;;7.30;5.25;;;16.40;62.00;;;;;;10460448;28;20527;-48
2022/05/06 03:06:52;;;;;;;7.70;6.35;;;16.40;62.00;;;;;;10459919;28;20060;-48
2022/05/06 03:11:52;;;;;;;9.18;6.53;;;16.30;62.00;;;;;;10459889;28;20064;-49
2022/05/06 03:16:53;;;;;;;6.78;5.72;;;16.40;62.00;;;;;;10459531;28;20082;-48
2022/05/06 03:21:55;;;;;;;6.82;5.18;;;16.30;61.90;;;;;;10459842;28;20025;-48
2022/05/06 03:26:56;;;;;;;6.78;5.70;;;16.40;61.90;;;;;;10459308;28;20501;-51
2022/05/06 03:31:57;;;;;;;8.55;6.40;;;16.40;62.00;;;;;;10474439;28;20080;-49
2022/05/06 03:36:58;;;;;;;6.25;5.28;;;16.40;62.10;;;;;;10458675;28;20481;-48
2022/05/06 03:41:58;;;;;;;7.43;5.43;;;16.40;62.10;;;;;;10458725;28;20033;-49
2022/05/06 03:46:59;;;;;;;6.00;4.78;;;16.30;62.00;;;;;;10458469;28;20465;-49
2022/05/06 03:52:00;;;;;;;6.43;5.70;;;16.30;62.10;;;;;;10458240;28;20061;-47
2022/05/06 03:57:00;;;;;;;6.43;5.03;;;16.30;62.10;;;;;;10456890;28;20041;-48
2022/05/06 04:02:01;;;;;;;7.13;5.18;;;16.30;62.10;;;;;;10469049;28;20096;-48
2022/05/06 04:07:02;;;;;;;6.93;5.47;;;16.30;62.20;;;;;;10457769;28;20056;-49
2022/05/06 04:12:04;;;;;;;6.07;5.32;;;16.30;62.20;;;;;;10458521;28;20056;-49
2022/05/06 04:17:04;;;;;;;7.10;4.85;;;16.30;62.20;;;;;;10458411;28;20052;-48
2022/05/06 04:27:24;;;;;;;7.13;5.70;;;16.30;62.20;;;;;;10466951;28;20033;-50
2022/05/06 04:32:25;;;;;;;6.80;5.25;;;16.30;62.20;;;;;;10457102;28;20532;-47
2022/05/06 04:37:26;;;;;;;6.63;5.45;;;16.30;62.20;;;;;;10457276;28;20052;-51
2022/05/06 04:42:27;;;;;;;6.38;5.68;;;16.30;62.20;;;;;;10455550;28;20095;-47
2022/05/06 04:47:28;;;;;;;6.72;4.90;;;16.30;62.20;;;;;;10466065;28;20040;-51
2022/05/06 04:52:28;;;;;;;7.45;5.65;;;16.30;62.10;;;;;;10457450;28;20591;-47
2022/05/06 04:57:29;;;;;;;7.50;5.70;;;16.30;61.90;;;;;;10457360;28;20040;-47
2022/05/06 05:02:30;;;;;;;6.60;5.90;;;16.30;62.00;;;;;;10457355;28;20056;-48
2022/05/06 05:07:30;;;;;;;7.10;5.70;;;16.30;62.30;;;;;;10455992;28;20086;-48
2022/05/06 05:12:31;;;;;;;7.40;6.55;;;16.30;63.10;;;;;;10459525;28;20067;-46
2022/05/06 05:17:32;;;;;;;8.00;6.90;;;16.40;63.40;;;;;;10453790;28;20137;-47
2022/05/06 05:22:33;;;;;;;7.85;5.82;;;16.30;63.30;;;;;;10453095;28;20478;-46
2022/05/06 05:27:39;;;;;;;7.38;6.20;;;16.30;63.10;;;;;;10470326;28;20028;-48
2022/05/06 05:32:40;;;;;;;7.63;6.53;;;16.40;63.30;;;;;;10454262;28;20048;-47
2022/05/06 05:37:41;;;;;;;13.27;7.60;;;16.30;63.90;;;;;;10456798;28;20021;-48
2022/05/06 05:42:41;;;;;;;10.57;7.07;;;16.40;64.40;;;;;;10454025;28;20036;-47
2022/05/06 05:53:02;;;;;;;15.00;7.38;;;16.40;64.10;;;;;;10453398;28;20044;-46
2022/05/06 05:58:03;;;;;;;12.68;7.30;;;16.40;63.80;;;;;;10452351;28;20033;-47
2022/05/06 06:03:03;;;;;;;15.40;7.13;;;16.40;64.30;;;;;;10455975;28;20105;-51
2022/05/06 06:08:04;;;;;;;12.40;7.70;;;16.60;65.30;;;;;;10454941;28;20453;-46
2022/05/06 06:13:05;;;;;;;14.07;6.88;;;16.80;65.40;;;;;;10453638;28;20025;-48
2022/05/06 06:18:06;;;;;;;16.25;6.00;;;16.90;64.80;;;;;;10453149;28;20033;-49
2022/05/06 06:23:07;;;;;;;16.38;6.68;;;16.90;65.50;;;;;;10453700;28;20105;-50
2022/05/06 06:28:07;;;;;;;14.23;6.35;;;16.90;65.50;;;;;;10453631;28;20498;-48
2022/05/06 06:33:08;;;;;;;14.30;7.03;;;16.70;65.70;;;;;;10453115;28;20053;-48
2022/05/06 06:38:09;;;;;;;26.20;8.23;;;16.70;66.10;;;;;;10451725;28;20033;-49
2022/05/06 06:43:10;;;;;;;14.93;5.78;;;16.80;66.30;;;;;;10466712;28;20132;-46
2022/05/06 06:48:11;;;;;;;12.13;6.55;;;16.80;66.00;;;;;;10451540;28;20106;-49
2022/05/06 06:53:12;;;;;;;15.07;5.68;;;16.70;66.30;;;;;;10439863;28;20358;-49
2022/05/06 06:58:13;;;;;;;13.95;5.43;;;16.60;66.20;;;;;;10449182;28;20108;-49
2022/05/06 07:03:14;;;;;;;10.10;5.72;;;16.50;66.00;;;;;;10450318;28;20090;-49
2022/05/06 07:13:34;;;;;;;9.65;5.82;;;16.50;65.40;;;;;;10452974;28;20066;-47
2022/05/06 07:18:36;;;;;;;6.88;4.68;;;16.50;65.70;;;;;;10448817;28;20067;-50
2022/05/06 07:23:37;;;;;;;8.77;5.05;;;16.40;65.30;;;;;;10441045;28;20030;-49
2022/05/06 07:28:39;;;;;;;6.10;4.03;;;16.40;65.10;;;;;;10428688;28;20108;-48
2022/05/06 07:33:40;;;;;;;9.45;6.05;;;16.40;65.10;;;;;;10449530;28;20111;-48
2022/05/06 07:38:41;;;;;;;6.13;4.15;;;16.40;65.10;;;;;;10453417;28;20060;-52
2022/05/06 07:43:41;;;;;;;9.00;4.72;;;16.40;65.10;;;;;;10417329;28;20025;-48
2022/05/06 07:48:42;;;;;;;9.35;5.40;;;16.40;65.00;;;;;;10418213;28;20061;-47
2022/05/06 07:53:43;;;;;;;7.07;4.72;;;16.40;64.90;;;;;;10433536;28;20029;-50
2022/05/06 07:58:44;;;;;;;5.82;4.43;;;16.40;65.00;;;;;;10418255;28;20490;-47
2022/05/06 08:09:04;;;;;;;10.57;5.25;;;16.30;64.90;;;;;;10417228;28;20057;-47
2022/05/06 08:14:04;;;;;;;6.50;4.28;;;16.40;65.10;;;;;;10424679;28;20450;-48
2022/05/06 08:19:05;;;;;;;10.27;4.35;;;16.40;65.10;;;;;;10438627;28;20064;-49
2022/05/06 08:24:06;;;;;;;13.20;5.07;;;16.50;65.10;;;;;;10458213;28;20111;-48
2022/05/06 08:29:07;;;;;;;24.13;6.07;;;16.50;65.50;;;;;;10457286;28;20037;-52
2022/05/06 08:34:10;;;;;;;28.05;6.40;;;16.50;66.00;;;;;;10471421;28;20119;-49
2022/05/06 08:39:12;;;;;;;29.65;6.40;;;16.60;66.20;;;;;;10454936;28;20139;-46
2022/05/06 08:54:53;;;;;;;13.55;5.00;;;16.60;65.70;;;;;;10455384;28;20036;-48
2022/05/06 08:59:54;;;;;;;14.73;4.90;;;16.60;65.70;;;;;;10453933;28;20044;-48
2022/05/06 09:04:55;;;;;;;14.73;4.55;;;16.70;65.70;;;;;;10469787;28;20033;-49
2022/05/06 09:10:15;;;;;;;9.05;4.63;;;16.70;65.70;;;;;;10454629;28;20031;-47
2022/05/06 09:20:37;;;;;;;12.75;5.03;;;16.70;65.70;;;;;;10456199;28;19912;-49
2022/05/06 09:25:46;;;;;;;8.55;4.88;;;16.70;66.20;;;;;;10456064;28;20055;-48
2022/05/06 09:31:11;;;;;;;14.57;4.05;;;16.70;65.70;;;;;;10455436;28;20029;-48
2022/05/06 09:36:31;;;;;;;6.47;3.55;;;16.70;65.60;;;;;;10470251;28;20060;-46
2022/05/06 09:41:32;;;;;;;6.82;3.15;;;16.80;65.60;;;;;;10455263;28;20021;-48
2022/05/06 09:46:35;;;;;;;7.63;3.65;;;16.80;65.60;;;;;;10454777;28;20432;-47
2022/05/06 09:51:35;;;;;;;5.93;3.65;;;16.80;65.60;;;;;;10454701;28;20033;-46
2022/05/06 09:56:37;;;;;;;7.15;3.78;;;16.80;65.60;;;;;;10454912;28;20060;-47
2022/05/06 10:01:38;;;;;;;5.45;2.75;;;16.80;65.50;;;;;;10469445;28;20428;-46
2022/05/06 10:06:39;;;;;;;7.47;3.80;;;16.80;65.50;;;;;;10454026;28;20029;-48
2022/05/06 10:11:40;;;;;;;8.73;3.05;;;16.90;65.50;;;;;;10452741;28;20036;-47
2022/05/06 10:16:41;;;;;;;8.18;3.17;;;16.90;65.40;;;;;;10453880;28;20512;-47
2022/05/06 10:21:49;;;;;;;5.20;2.67;;;16.90;65.30;;;;;;10469132;28;20029;-48
2022/05/06 10:26:53;;;;;;;5.63;3.33;;;17.00;65.30;;;;;;10469501;28;20043;-47
2022/05/06 10:37:15;;;;;;;6.97;3.08;;;17.00;65.20;;;;;;10453822;28;20471;-48
2022/05/06 10:42:17;;;;;;;6.00;2.95;;;17.00;65.10;;;;;;10453621;28;20028;-47
2022/05/06 10:47:18;;;;;;;4.80;2.80;;;17.10;65.00;;;;;;10453120;28;20037;-46
2022/05/06 10:52:23;;;;;;;5.60;2.97;;;17.10;64.90;;;;;;10448365;28;20029;-47
2022/05/06 10:57:26;;;;;;;4.07;2.50;;;17.20;64.90;;;;;;10439014;28;20029;-46
2022/05/06 11:02:32;;;;;;;4.10;2.67;;;17.20;64.80;;;;;;10442170;28;20167;-48
2022/05/06 11:07:37;;;;;;;5.80;3.35;;;17.20;64.50;;;;;;10411717;28;20033;-47
2022/05/06 11:12:43;;;;;;;5.95;3.53;;;17.20;64.30;;;;;;10417106;28;20179;-46
2022/05/06 11:17:45;;;;;;;6.40;3.72;;;17.20;64.20;;;;;;10419457;28;20090;-47
2022/05/06 11:22:51;;;;;;;7.18;4.65;;;17.20;64.00;;;;;;10434909;28;20044;-46
2022/05/06 11:27:55;;;;;;;7.55;4.28;;;17.30;64.00;;;;;;10459514;28;20503;-46
2022/05/06 11:33:02;;;;;;;6.45;4.30;;;17.30;63.80;;;;;;10457180;28;20048;-46
2022/05/06 11:38:03;;;;;;;10.05;4.82;;;17.30;63.90;;;;;;10439135;28;20036;-48
2022/05/06 11:43:07;;;;;;;7.40;3.88;;;17.30;63.80;;;;;;10427973;28;20378;-46
2022/05/06 11:48:14;;;;;;;6.55;4.07;;;17.30;63.70;;;;;;10457260;28;20143;-47
2022/05/06 11:53:18;;;;;;;5.05;3.65;;;17.40;64.30;;;;;;10459317;28;20040;-47
2022/05/06 11:58:19;;;;;;;6.10;3.58;;;17.40;63.60;;;;;;10454419;28;20052;-46
2022/05/06 12:03:21;;;;;;;6.63;3.97;;;17.40;63.40;;;;;;10472928;28;20048;-47
2022/05/06 12:08:26;;;;;;;7.32;3.55;;;17.50;63.30;;;;;;10456668;28;20517;-50
2022/05/06 12:13:41;;;;;;;4.53;3.40;;;17.50;63.30;;;;;;10457647;28;20040;-45
2022/05/06 12:18:58;;;;;;;5.57;4.03;;;17.60;63.30;;;;;;10458705;28;20033;-47
2022/05/06 12:24:01;;;;;;;9.60;3.63;;;17.60;63.10;;;;;;10438273;28;20025;-45
2022/05/06 12:29:18;;;;;;;5.85;3.20;;;17.60;63.40;;;;;;10433715;28;20087;-45
2022/05/06 12:34:29;;;;;;;10.70;4.20;;;17.70;63.40;;;;;;10424451;28;20054;-49
2022/05/06 12:39:29;;;;;;;6.30;3.88;;;17.80;63.40;;;;;;10421791;28;20036;-47
2022/05/06 12:44:32;;;;;;;8.10;3.55;;;17.80;63.60;;;;;;10441250;28;20063;-46
2022/05/06 12:49:42;;;;;;;11.35;4.40;;;17.90;63.80;;;;;;10433940;28;20036;-47
2022/05/06 12:54:42;;;;;;;16.02;4.70;;;17.90;64.00;;;;;;10414996;28;20386;-46
2022/05/06 12:59:43;;;;;;;17.75;4.63;;;18.00;64.00;;;;;;10415685;28;20052;-48
2022/05/06 13:04:44;;;;;;;17.77;4.70;;;18.10;63.80;;;;;;10418568;28;20477;-47
2022/05/06 13:09:45;;;;;;;15.98;4.20;;;18.00;63.80;;;;;;10414661;28;20116;-47
2022/05/06 13:14:45;;;;;;;7.07;4.13;;;18.00;63.80;;;;;;10430299;28;20132;-48
2022/05/06 13:19:46;;;;;;;10.75;4.18;;;18.00;64.30;;;;;;10428969;28;20449;-47
2022/05/06 13:24:47;;;;;;;9.50;4.55;;;18.00;64.10;;;;;;10446947;28;20108;-46
2022/05/06 13:29:47;;;;;;;10.25;3.85;;;18.00;63.70;;;;;;10454484;28;20064;-50
2022/05/06 13:34:48;;;;;;;10.02;4.60;;;18.00;63.70;;;;;;10454057;28;20174;-47
2022/05/06 13:39:49;;;;;;;13.48;6.25;;;18.00;63.50;;;;;;10454682;28;20496;-49
2022/05/06 13:44:49;;;;;;;11.48;6.25;;;18.00;62.80;;;;;;10455178;28;20147;-47
2022/05/06 13:49:50;;;;;;;15.18;6.85;;;18.00;62.40;;;;;;10455231;28;20060;-46
2022/05/06 13:54:51;;;;;;;14.00;7.57;;;18.00;61.90;;;;;;10454911;28;20520;-50
2022/05/06 13:59:51;;;;;;;12.95;6.72;;;18.00;61.50;;;;;;10453677;28;20126;-48
2022/05/06 14:04:52;;;;;;;34.25;9.88;;;18.00;61.40;;;;;;10485273;28;20059;-45
2022/05/06 14:09:53;;;;;;;31.40;10.88;;;18.10;61.20;;;;;;10461839;28;20461;-45
2022/05/06 14:14:53;;;;;;;34.72;11.88;;;18.10;61.60;;;;;;10454072;28;20132;-47
2022/05/06 14:19:55;;;;;;;32.28;11.25;;;18.20;60.50;;;;;;10444728;28;20068;-48
2022/05/06 14:24:56;;;;;;;31.48;10.70;;;18.20;60.50;;;;;;10451710;28;20017;-46
2022/05/06 14:29:56;;;;;;;25.73;9.82;;;18.20;60.60;;;;;;10452988;28;20404;-47
2022/05/06 14:35:16;;;;;;;20.80;9.60;;;18.10;60.60;;;;;;10453426;28;20567;-47
2022/05/06 14:40:19;;;;;;;25.60;8.68;;;18.10;60.50;;;;;;10464791;28;20033;-47
2022/05/06 14:45:19;;;;;;;16.48;9.52;;;18.10;60.60;;;;;;10415552;28;20461;-50
2022/05/06 14:50:20;;;;;;;20.65;10.27;;;18.10;60.80;;;;;;10420402;28;20029;-47
2022/05/06 14:55:21;;;;;;;17.90;11.82;;;18.10;60.70;;;;;;10420220;28;20025;-48
2022/05/06 15:00:22;;;;;;;18.50;9.75;;;18.10;60.10;;;;;;10424638;28;20040;-47
2022/05/06 15:05:23;;;;;;;16.13;8.80;;;18.10;60.50;;;;;;10459860;28;20065;-50
2022/05/06 15:10:23;;;;;;;19.48;11.05;;;18.10;60.40;;;;;;10459397;28;20095;-48
2022/05/06 15:15:24;;;;;;;17.85;10.85;;;18.10;60.20;;;;;;10458241;28;20037;-46
2022/05/06 15:20:25;;;;;;;27.10;11.98;;;18.20;60.00;;;;;;10436375;28;20111;-50
2022/05/06 15:25:25;;;;;;;17.42;10.90;;;18.10;60.30;;;;;;10455090;28;20041;-48
2022/05/06 15:30:26;;;;;;;20.88;14.13;;;18.10;60.40;;;;;;10459040;28;20091;-47
2022/05/06 15:35:27;;;;;;;18.98;9.73;;;18.20;60.00;;;;;;10460383;28;20485;-49
2022/05/06 15:40:30;;;;;;;18.58;14.80;;;18.10;60.50;;;;;;10469483;28;20055;-48
2022/05/06 15:45:32;;;;;;;20.67;12.00;;;18.20;60.10;;;;;;10450143;28;20030;-48
2022/05/06 15:50:33;;;;;;;14.93;12.43;;;18.20;60.00;;;;;;10420119;28;20025;-51
2022/05/06 15:55:34;;;;;;;26.85;20.95;;;18.10;60.50;;;;;;10466933;28;20607;-52
2022/05/06 16:00:34;;;;;;;24.65;18.85;;;18.40;62.50;;;;;;10459760;28;20040;-51
2022/05/06 16:05:35;;;;;;;67.45;51.55;;;18.50;61.10;;;;;;10458186;28;20544;-51
2022/05/06 16:10:36;;;;;;;29.33;22.33;;;18.50;63.40;;;;;;10458844;28;20102;-48
2022/05/06 16:15:37;;;;;;;22.08;18.10;;;18.40;61.90;;;;;;10458620;28;20488;-47
2022/05/06 16:20:39;;;;;;;19.30;17.05;;;18.40;60.70;;;;;;10458292;28;20070;-48
2022/05/06 16:25:43;;;;;;;16.90;14.50;;;18.40;60.30;;;;;;10456934;28;20103;-51
2022/05/06 16:30:44;;;;;;;17.48;15.65;;;18.30;60.60;;;;;;10458101;28;20057;-47
2022/05/06 16:41:05;;;;;;;18.25;16.45;;;18.30;59.90;;;;;;10471424;28;20064;-52
2022/05/06 16:46:05;;;;;;;18.00;16.30;;;18.50;59.30;;;;;;10457181;28;20099;-48
2022/05/06 16:51:06;;;;;;;18.15;14.73;;;18.50;59.10;;;;;;10457314;28;20718;-48
2022/05/06 16:56:06;;;;;;;15.80;13.82;;;18.50;58.80;;;;;;10456630;28;20071;-48
2022/05/06 17:01:07;;;;;;;20.13;15.20;;;18.40;59.10;;;;;;10456100;28;20048;-48
2022/05/06 17:06:08;;;;;;;18.13;13.38;;;18.30;60.30;;;;;;10472068;28;20060;-49
2022/05/06 17:11:12;;;;;;;18.67;12.05;;;18.50;59.40;;;;;;10453996;28;20037;-48
2022/05/06 17:16:13;;;;;;;15.85;14.10;;;18.50;59.90;;;;;;10456274;28;20085;-48
2022/05/06 17:21:14;;;;;;;16.30;13.30;;;18.30;60.30;;;;;;10455914;28;20074;-52
2022/05/06 17:26:15;;;;;;;20.67;13.65;;;18.20;60.60;;;;;;10455693;28;20041;-50
2022/05/06 17:31:27;;;;;;;21.40;13.35;;;18.30;60.80;;;;;;10490092;28;20413;-49
2022/05/06 17:36:29;;;;;;;16.85;13.75;;;18.30;60.20;;;;;;10447643;28;20029;-52
2022/05/06 17:41:31;;;;;;;12.85;11.55;;;18.20;60.00;;;;;;10448602;28;20021;-50
2022/05/06 17:46:32;;;;;;;14.13;12.82;;;18.10;60.30;;;;;;10448346;28;20032;-48
2022/05/06 17:51:34;;;;;;;15.55;13.85;;;18.10;60.10;;;;;;10447726;28;20490;-52
2022/05/06 17:56:36;;;;;;;17.80;14.63;;;18.20;59.70;;;;;;10462365;28;20513;-50
2022/05/06 18:01:37;;;;;;;16.33;14.48;;;18.20;59.40;;;;;;10461252;28;20035;-48
2022/05/06 18:06:37;;;;;;;60.88;41.45;;;18.10;60.30;;;;;;10447432;28;20457;-52
2022/05/06 18:11:38;;;;;;;131.05;93.53;;;18.30;60.30;;;;;;10445943;28;20125;-53
2022/05/06 18:16:39;;;;;;;121.57;93.95;;;18.60;59.80;;;;;;10435756;28;20479;-54
2022/05/06 18:21:39;;;;;;;88.05;73.00;;;18.40;60.20;;;;;;10446471;28;20056;-50
2022/05/06 18:26:41;;;;;;;84.85;64.78;;;18.20;60.90;;;;;;10446456;28;20457;-50
2022/05/06 18:37:01;;;;;;;71.23;61.33;;;18.20;61.00;;;;;;10444731;28;20045;-47
2022/05/06 18:42:01;;;;;;;67.85;57.20;;;18.10;61.40;;;;;;10403666;28;20026;-49
2022/05/06 18:47:02;;;;;;;71.38;56.35;;;18.00;61.50;;;;;;10417685;28;20037;-48
2022/05/06 18:52:04;;;;;;;66.82;53.55;;;18.00;61.70;;;;;;10414009;28;20039;-47
2022/05/06 18:57:05;;;;;;;63.38;50.25;;;18.00;61.80;;;;;;10417122;28;20462;-48
2022/05/06 19:02:06;;;;;;;50.67;45.13;;;18.00;61.90;;;;;;10417080;28;20033;-47
2022/05/06 19:07:06;;;;;;;46.55;40.80;;;18.00;62.50;;;;;;10416714;28;20112;-47
2022/05/06 19:12:08;;;;;;;43.60;36.78;;;18.00;62.00;;;;;;10413170;28;20101;-48
2022/05/06 19:17:09;;;;;;;37.15;32.60;;;17.90;62.00;;;;;;10414999;28;20057;-50
2022/05/06 19:27:30;;;;;;;39.08;35.22;;;17.90;62.10;;;;;;10411916;28;20053;-47
2022/05/06 19:32:31;;;;;;;30.15;26.90;;;18.00;64.20;;;;;;10388383;28;20022;-48
2022/05/06 19:37:31;;;;;;;30.80;27.58;;;18.10;63.20;;;;;;10403174;28;20046;-47
2022/05/06 19:42:32;;;;;;;27.42;23.77;;;18.10;63.40;;;;;;10375919;28;20114;-47
2022/05/06 19:47:33;;;;;;;29.55;25.35;;;18.00;63.30;;;;;;10412460;28;20473;-47
2022/05/06 19:53:18;;;;;;;25.30;22.75;;;18.00;63.20;;;;;;10413135;28;20048;-49
2022/05/06 19:57:57;;;;;;;23.55;21.10;;;17.90;62.50;;;;;;10408852;28;20071;-48
2022/05/06 20:02:58;;;;;;;24.88;22.30;;;17.90;62.50;;;;;;10413809;28;20049;-51
2022/05/06 20:08:04;;;;;;;27.63;23.08;;;17.90;62.60;;;;;;10411659;28;20040;-49
2022/05/06 20:13:05;;;;;;;22.98;20.58;;;17.90;62.60;;;;;;10412724;28;20022;-48
2022/05/06 20:18:06;;;;;;;23.20;20.95;;;17.90;62.60;;;;;;10411934;28;20029;-47
2022/05/06 20:23:07;;;;;;;20.27;18.13;;;17.90;62.70;;;;;;10413889;28;20033;-50
2022/05/06 20:28:07;;;;;;;20.60;18.50;;;17.90;62.70;;;;;;10413722;28;20065;-48
2022/05/06 20:33:08;;;;;;;21.50;19.15;;;17.90;62.80;;;;;;10412547;28;20078;-49
2022/05/06 20:38:08;;;;;;;21.00;17.92;;;17.90;62.90;;;;;;10412529;28;20064;-48
2022/05/06 20:43:09;;;;;;;19.33;16.73;;;17.90;62.90;;;;;;10413326;28;20434;-49
2022/05/06 20:48:11;;;;;;;19.50;17.15;;;17.90;63.00;;;;;;10413818;28;20452;-48
2022/05/06 20:53:14;;;;;;;18.83;17.02;;;17.90;63.10;;;;;;10412739;28;20030;-48
2022/05/06 21:03:34;;;;;;;17.70;15.63;;;17.90;63.00;;;;;;10414088;28;20526;-46
2022/05/06 21:13:57;;;;;;;17.17;15.23;;;17.90;63.00;;;;;;10413373;28;20041;-47
2022/05/06 21:18:59;;;;;;;16.73;15.07;;;17.90;63.00;;;;;;10413371;28;20449;-51
2022/05/06 21:24:00;;;;;;;17.38;15.63;;;17.90;63.00;;;;;;10412472;28;20116;-48
2022/05/06 21:29:01;;;;;;;15.55;14.02;;;17.90;63.00;;;;;;10411581;28;20117;-48
2022/05/06 21:34:02;;;;;;;16.15;14.38;;;17.90;63.00;;;;;;10413184;28;20029;-48
2022/05/06 21:39:04;;;;;;;14.90;13.43;;;17.80;63.00;;;;;;10412955;28;20493;-49
2022/05/06 21:44:04;;;;;;;14.98;13.40;;;17.80;63.00;;;;;;10411247;28;20030;-48
2022/05/06 21:49:05;;;;;;;15.80;12.98;;;17.80;63.10;;;;;;10412811;28;20064;-48
2022/05/06 21:54:06;;;;;;;14.02;12.65;;;17.80;63.00;;;;;;10411775;28;20121;-49
2022/05/06 21:59:06;;;;;;;14.77;12.90;;;17.80;63.10;;;;;;10411231;28;20049;-51
2022/05/06 22:04:10;;;;;;;12.95;11.57;;;17.80;63.10;;;;;;10412810;28;20120;-48
2022/05/06 22:09:11;;;;;;;13.45;12.20;;;17.80;63.00;;;;;;10412371;28;20080;-48
2022/05/06 22:14:12;;;;;;;12.93;11.55;;;17.80;63.10;;;;;;10413851;28;20123;-49
2022/05/06 22:19:15;;;;;;;12.68;11.48;;;17.80;63.00;;;;;;10419738;28;20065;-50
2022/05/06 22:24:16;;;;;;;12.65;11.50;;;17.80;63.00;;;;;;10419860;28;20037;-47
2022/05/06 22:29:17;;;;;;;11.65;10.55;;;17.80;63.00;;;;;;10419256;28;20402;-49
2022/05/06 22:34:31;;;;;;;13.98;11.98;;;17.70;63.10;;;;;;10419668;28;20095;-47
2022/05/06 22:39:31;;;;;;;11.75;10.57;;;17.70;63.00;;;;;;10419129;28;20045;-47
2022/05/06 22:49:51;;;;;;;12.10;10.90;;;17.70;63.10;;;;;;10419014;28;20041;-47
2022/05/06 22:54:52;;;;;;;11.85;10.65;;;17.70;63.00;;;;;;10418889;28;20021;-48
2022/05/06 22:59:52;;;;;;;11.50;10.30;;;17.70;63.00;;;;;;10418278;28;20037;-48
2022/05/06 23:04:53;;;;;;;11.85;10.65;;;17.70;63.00;;;;;;10418405;28;20457;-47
2022/05/06 23:09:54;;;;;;;12.75;10.20;;;17.70;62.90;;;;;;10416591;28;20529;-47
2022/05/06 23:14:54;;;;;;;11.52;10.15;;;17.70;62.90;;;;;;10418177;28;20098;-48
2022/05/06 23:19:55;;;;;;;10.43;9.40;;;17.70;62.90;;;;;;10417674;28;20060;-48
2022/05/06 23:24:56;;;;;;;11.43;10.32;;;17.70;62.90;;;;;;10417507;28;20116;-49
2022/05/06 23:29:57;;;;;;;15.60;11.52;;;17.70;62.80;;;;;;10417275;28;20124;-48
2022/05/06 23:34:57;;;;;;;12.32;8.98;;;17.70;62.90;;;;;;10417132;28;20053;-47
2022/05/06 23:40:01;;;;;;;11.02;9.88;;;17.70;62.90;;;;;;10416958;28;20112;-51
2022/05/06 23:45:03;;;;;;;10.80;9.10;;;17.70;62.90;;;;;;10416907;28;20112;-48
2022/05/06 23:50:04;;;;;;;10.48;9.43;;;17.70;62.90;;;;;;10414956;28;20037;-49
2022/05/06 23:55:05;;;;;;;10.60;9.63;;;17.60;62.90;;;;;;10414886;28;20025;-49
